Time;durP1;ratioP1;P1;durP2;ratioP2;P2;SDS_P1;SDS_P2;PMS_P1;PMS_P2;Temp;Humidity;BMP_temperature;BMP_pressure;BME280_temperature;BME280_humidity;BME280_pressure;Samples;Min_cycle;Max_cycle;Signal;HPM_P1;HPM_P2
2022/11/10 00:02:31;;;;;;;241.63;49.00;;;;;;;5.73;99.70;98309.09;10289316;28;20432;-55
2022/11/10 00:07:30;;;;;;;99.43;43.97;;;;;;;5.57;100.00;98314.66;10289656;28;20069;-55
2022/11/10 00:12:31;;;;;;;87.00;41.13;;;;;;;5.60;100.00;98314.72;10290495;28;20053;-55
2022/11/10 00:17:30;;;;;;;78.78;40.17;;;;;;;5.60;100.00;98313.88;10289443;28;20073;-55
2022/11/10 00:22:29;;;;;;;79.68;41.80;;;;;;;5.46;100.00;98298.03;10280257;28;20096;-56
2022/11/10 00:27:28;;;;;;;79.25;40.90;;;;;;;5.47;100.00;98299.81;10256247;28;20098;-55
2022/11/10 00:32:27;;;;;;;78.07;39.83;;;;;;;5.45;100.00;98306.59;10256409;28;20029;-55
2022/11/10 00:37:26;;;;;;;73.32;38.15;;;;;;;5.42;100.00;98301.38;10254483;28;20038;-55
2022/11/10 00:42:25;;;;;;;85.15;41.03;;;;;;;5.39;100.00;98284.16;10256153;28;20478;-55
2022/11/10 00:47:24;;;;;;;79.20;37.78;;;;;;;5.40;100.00;98287.59;10268728;28;20116;-55
2022/11/10 00:52:23;;;;;;;78.43;38.65;;;;;;;5.36;100.00;98281.47;10295890;28;20095;-55
2022/11/10 00:57:22;;;;;;;79.25;37.53;;;;;;;5.30;100.00;98284.75;10295528;28;20045;-55
2022/11/10 01:02:21;;;;;;;67.75;34.85;;;;;;;5.23;100.00;98279.41;10295810;28;20038;-55
2022/11/10 01:07:20;;;;;;;70.70;37.92;;;;;;;5.15;100.00;98283.44;10295227;28;20118;-55
2022/11/10 01:12:19;;;;;;;105.28;38.80;;;;;;;4.82;100.00;98255.88;10295023;28;20113;-55
2022/11/10 01:17:18;;;;;;;104.20;38.67;;;;;;;4.94;100.00;98279.41;10294709;28;20033;-55
2022/11/10 01:22:17;;;;;;;63.90;34.00;;;;;;;4.90;100.00;98277.56;10294530;28;20480;-55
2022/11/10 01:27:16;;;;;;;65.72;33.50;;;;;;;4.87;100.00;98267.16;10294541;28;20033;-55
2022/11/10 01:32:15;;;;;;;77.13;37.55;;;;;;;4.94;100.00;98274.25;10294392;28;20083;-55
2022/11/10 01:37:14;;;;;;;74.18;38.05;;;;;;;4.92;100.00;98278.44;10293448;28;20033;-55
2022/11/10 01:42:13;;;;;;;70.20;37.50;;;;;;;4.84;100.00;98267.09;10294072;28;20038;-56
2022/11/10 01:47:12;;;;;;;;;;;;;;;4.70;100.00;98272.66;10293721;28;20065;-55
2022/11/10 01:52:13;;;;;;;64.57;35.13;;;;;;;4.51;100.00;98278.06;10293747;28;20004;-56
2022/11/10 01:57:13;;;;;;;64.88;34.20;;;;;;;4.40;100.00;98279.44;10293333;28;20081;-56
2022/11/10 02:02:23;;;;;;;73.53;36.40;;;;;;;4.35;100.00;98270.72;10292961;28;20517;-55
2022/11/10 02:07:23;;;;;;;68.00;37.47;;;;;;;4.22;100.00;98270.31;10292800;28;20073;-55
2022/11/10 02:12:35;;;;;;;;;;;;;;;4.24;100.00;98268.69;10293223;28;20489;-55
2022/11/10 02:17:34;;;;;;;73.32;36.65;;;;;;;4.27;100.00;98271.34;10292441;28;19957;-55
2022/11/10 02:22:33;;;;;;;81.80;41.88;;;;;;;4.35;100.00;98268.13;10292264;28;20048;-55
2022/11/10 02:27:32;;;;;;;73.90;39.78;;;;;;;4.26;100.00;98274.72;10292369;28;20041;-55
2022/11/10 02:32:31;;;;;;;82.93;42.58;;;;;;;4.19;100.00;98277.91;10292299;28;20073;-55
2022/11/10 02:37:30;;;;;;;76.45;39.13;;;;;;;4.17;100.00;98284.69;10291944;28;20034;-55
2022/11/10 02:42:29;;;;;;;76.15;40.28;;;;;;;4.11;100.00;98283.66;10291351;28;20049;-55
2022/11/10 02:47:28;;;;;;;75.63;39.50;;;;;;;4.05;100.00;98285.16;10277445;28;20413;-55
2022/11/10 02:52:27;;;;;;;60.58;31.92;;;;;;;4.07;100.00;98295.50;10251013;28;20053;-55
2022/11/10 02:57:26;;;;;;;67.90;34.30;;;;;;;4.07;100.00;98292.94;10250734;28;20113;-55
2022/11/10 03:02:25;;;;;;;66.65;34.45;;;;;;;4.07;100.00;98305.78;10250677;28;20022;-55
2022/11/10 03:07:24;;;;;;;68.00;35.90;;;;;;;4.01;100.00;98303.88;10251060;28;20065;-56
2022/11/10 03:12:23;;;;;;;73.55;38.67;;;;;;;3.98;99.96;98301.19;10251011;28;20062;-57
2022/11/10 03:17:22;;;;;;;73.07;38.25;;;;;;;3.92;99.56;98302.69;10248976;28;20037;-57
2022/11/10 03:22:21;;;;;;;67.00;35.78;;;;;;;3.87;99.68;98305.09;10250393;28;20041;-57
2022/11/10 03:27:20;;;;;;;72.40;35.92;;;;;;;3.80;99.39;98304.03;10250283;28;20109;-57
2022/11/10 03:32:19;;;;;;;67.00;35.67;;;;;;;3.76;99.37;98298.72;10250194;28;20030;-55
2022/11/10 03:37:18;;;;;;;67.78;37.60;;;;;;;3.75;99.76;98315.84;10250218;28;20040;-55
2022/11/10 03:42:17;;;;;;;63.17;37.95;;;;;;;3.73;99.46;98306.31;10249828;28;20085;-55
2022/11/10 03:47:16;;;;;;;66.43;39.00;;;;;;;3.67;99.30;98299.28;10262055;28;20069;-55
2022/11/10 03:52:15;;;;;;;66.85;37.55;;;;;;;3.70;99.14;98307.06;10289851;28;20030;-55
2022/11/10 03:57:14;;;;;;;64.03;38.00;;;;;;;3.63;99.20;98315.38;10292303;28;20076;-55
2022/11/10 04:02:13;;;;;;;67.40;38.13;;;;;;;3.60;98.84;98317.84;10297803;28;20700;-55
2022/11/10 04:17:51;;;;;;;50.88;29.77;;;;;;;3.24;97.69;98338.78;10297186;28;20489;-57
2022/11/10 04:28:08;;;;;;;42.90;28.00;;;;;;;2.98;96.70;98338.69;10296928;28;20073;-57
2022/11/10 04:33:07;;;;;;;47.17;29.15;;;;;;;2.88;96.56;98344.25;10296321;28;20026;-57
2022/11/10 04:38:06;;;;;;;44.13;27.35;;;;;;;2.79;96.38;98351.56;10296533;28;20113;-57
2022/11/10 04:43:05;;;;;;;52.53;30.33;;;;;;;2.68;97.46;98345.19;10296446;28;20034;-57
2022/11/10 04:48:04;;;;;;;56.70;33.88;;;;;;;2.70;97.62;98343.53;10295744;28;20481;-57
2022/11/10 04:53:03;;;;;;;59.30;35.30;;;;;;;2.71;98.08;98343.59;10295794;28;20076;-57
2022/11/10 04:58:02;;;;;;;58.40;34.63;;;;;;;2.75;97.85;98349.72;10295704;28;20061;-57
2022/11/10 05:03:03;;;;;;;60.28;37.20;;;;;;;2.77;98.29;98342.97;10295047;28;20076;-57
2022/11/10 05:08:02;;;;;;;65.72;41.20;;;;;;;2.77;98.40;98342.97;10293901;28;20069;-57
2022/11/10 05:13:03;;;;;;;69.10;40.35;;;;;;;2.86;98.10;98348.44;10294958;28;20069;-57
2022/11/10 05:18:02;;;;;;;69.75;42.58;;;;;;;2.92;98.15;98342.69;10280879;28;20501;-57
2022/11/10 05:28:19;;;;;;;81.43;43.50;;;;;;;3.10;97.65;98357.91;10266488;28;20069;-56
2022/11/10 05:33:18;;;;;;;80.00;41.30;;;;;;;3.09;97.73;98348.47;10326734;28;20080;-56
2022/11/10 05:38:17;;;;;;;137.63;42.75;;;;;;;3.02;97.70;98360.16;10332782;28;20025;-56
2022/11/10 05:43:16;;;;;;;92.80;38.60;;;;;;;2.99;97.26;98363.50;10332766;28;20052;-56
2022/11/10 05:48:15;;;;;;;62.63;32.88;;;;;;;2.94;97.07;98377.81;10328496;28;20049;-57
2022/11/10 05:53:14;;;;;;;55.40;33.03;;;;;;;2.95;96.97;98378.69;10331830;28;20081;-56
2022/11/10 05:58:13;;;;;;;41.03;26.67;;;;;;;2.76;95.70;98382.22;10330768;28;20033;-56
2022/11/10 06:03:14;;;;;;;40.65;27.40;;;;;;;2.65;95.92;98386.03;10322032;28;20029;-56
2022/11/10 06:08:13;;;;;;;52.22;28.98;;;;;;;2.38;95.65;98399.47;10309090;28;20069;-56
2022/11/10 06:13:13;;;;;;;53.55;27.67;;;;;;;2.36;95.86;98401.09;10328604;28;20477;-56
2022/11/10 06:18:11;;;;;;;48.65;27.83;;;;;;;2.41;96.10;98408.97;10331909;28;20125;-56
2022/11/10 06:23:12;;;;;;;50.38;29.10;;;;;;;2.49;96.49;98410.16;10330973;28;20581;-56
2022/11/10 06:28:11;;;;;;;35.17;22.50;;;;;;;2.64;96.41;98412.50;10330303;28;20427;-55
2022/11/10 06:33:10;;;;;;;34.35;22.88;;;;;;;2.87;96.55;98421.97;10330062;28;20494;-57
2022/11/10 06:38:11;;;;;;;52.50;30.17;;;;;;;2.98;96.15;98425.84;10330738;28;20629;-56
2022/11/10 06:43:10;;;;;;;52.08;27.50;;;;;;;3.05;96.21;98426.06;10328507;28;20092;-55
2022/11/10 06:48:12;;;;;;;44.90;28.70;;;;;;;3.22;96.26;98432.75;10317526;28;20069;-56
2022/11/10 06:53:12;;;;;;;49.30;30.88;;;;;;;3.42;96.40;98429.28;10297503;28;20072;-56
2022/11/10 06:58:11;;;;;;;61.75;32.05;;;;;;;3.57;96.57;98430.66;10328563;28;20073;-55
2022/11/10 07:03:12;;;;;;;65.68;34.30;;;;;;;3.76;96.54;98433.06;10329692;28;20035;-55
2022/11/10 07:08:17;;;;;;;49.78;31.00;;;;;;;3.95;96.54;98438.88;10330148;28;20488;-55
2022/11/10 07:13:17;;;;;;;59.05;34.88;;;;;;;4.18;96.88;98439.72;10328739;28;20473;-55
2022/11/10 07:18:16;;;;;;;61.45;39.58;;;;;;;4.40;96.39;98441.31;10330378;28;20129;-58
2022/11/10 07:23:14;;;;;;;47.08;29.85;;;;;;;4.56;96.83;98442.72;10331047;28;20092;-56
2022/11/10 07:28:13;;;;;;;54.92;34.15;;;;;;;4.69;97.25;98445.75;10330801;28;20473;-57
2022/11/10 07:33:13;;;;;;;49.45;32.30;;;;;;;4.93;97.35;98430.25;10333619;28;20148;-58
2022/11/10 07:38:13;;;;;;;56.30;34.38;;;;;;;5.21;97.26;98433.72;10339282;28;20061;-55
2022/11/10 07:43:12;;;;;;;56.83;37.20;;;;;;;5.49;97.01;98426.84;10338608;28;20073;-56
2022/11/10 07:48:11;;;;;;;71.97;40.20;;;;;;;5.72;96.67;98424.97;10338664;28;20120;-56
2022/11/10 07:53:13;;;;;;;63.67;39.20;;;;;;;5.97;96.98;98427.38;10338698;28;20065;-56
2022/11/10 07:58:15;;;;;;;66.40;40.67;;;;;;;6.26;96.73;98437.63;10350224;28;20068;-55
2022/11/10 08:03:19;;;;;;;58.95;37.35;;;;;;;6.59;96.58;98434.19;10337882;28;20069;-56
2022/11/10 08:08:18;;;;;;;67.07;39.78;;;;;;;6.88;96.31;98431.47;10328519;28;20076;-56
2022/11/10 08:13:17;;;;;;;59.97;39.30;;;;;;;7.10;96.38;98428.56;10304246;28;20042;-56
2022/11/10 08:18:19;;;;;;;69.57;42.13;;;;;;;7.36;95.88;98420.56;10299240;28;20091;-56
2022/11/10 08:23:18;;;;;;;67.63;39.80;;;;;;;7.60;95.80;98426.28;10298625;28;20069;-57
2022/11/10 08:28:19;;;;;;;59.25;37.67;;;;;;;7.90;95.59;98432.03;10297611;28;20037;-57
2022/11/10 08:33:19;;;;;;;54.50;37.00;;;;;;;8.21;95.11;98425.78;10297703;28;20073;-57
2022/11/10 08:38:21;;;;;;;52.63;36.45;;;;;;;8.42;95.08;98423.59;10305650;28;20073;-57
2022/11/10 08:43:19;;;;;;;57.28;35.75;;;;;;;8.75;94.80;98430.22;10337099;28;20068;-57
2022/11/10 08:48:19;;;;;;;55.22;36.38;;;;;;;8.97;93.86;98431.41;10337203;28;20041;-57
2022/11/10 08:53:19;;;;;;;;;;;;;;;9.15;93.09;98433.44;10338268;28;20072;-58
2022/11/10 08:58:20;;;;;;;;;;;;;;;9.40;92.51;98421.78;10337846;28;20356;-57
2022/11/10 09:03:21;;;;;;;52.72;35.05;;;;;;;9.73;91.17;98425.69;10309753;28;19944;-57
2022/11/10 09:08:20;;;;;;;52.50;34.03;;;;;;;10.03;91.43;98425.19;10336888;28;20084;-57
2022/11/10 09:13:22;;;;;;;48.55;33.20;;;;;;;10.25;90.53;98404.69;10337920;28;20048;-57
2022/11/10 09:18:20;;;;;;;52.40;34.53;;;;;;;10.55;88.45;98411.91;10336199;28;20076;-57
2022/11/10 09:23:20;;;;;;;50.75;32.95;;;;;;;10.79;85.72;98414.72;10337095;28;20026;-57
2022/11/10 09:28:20;;;;;;;45.95;32.03;;;;;;;10.95;82.34;98407.09;10336928;28;20784;-57
2022/11/10 09:33:19;;;;;;;48.60;31.35;;;;;;;11.24;82.15;98391.72;10336215;28;20076;-57
2022/11/10 09:38:18;;;;;;;46.58;31.17;;;;;;;11.49;80.75;98392.72;10334209;28;20033;-57
2022/11/10 09:43:30;;;;;;;50.20;32.45;;;;;;;11.78;80.45;98395.50;10335859;28;20104;-57
2022/11/10 09:48:44;;;;;;;45.70;30.73;;;;;;;12.01;78.94;98379.94;10334723;28;20571;-58
2022/11/10 09:53:57;;;;;;;46.13;32.38;;;;;;;12.27;77.34;98382.69;10304389;28;20056;-57
2022/11/10 09:58:56;;;;;;;43.50;29.90;;;;;;;12.49;75.43;98369.72;10335193;28;20060;-57
2022/11/10 10:04:31;;;;;;;47.88;30.50;;;;;;;12.82;73.79;98368.00;10333393;28;20061;-57
2022/11/10 10:09:41;;;;;;;45.35;29.70;;;;;;;12.99;72.10;98361.00;10317072;28;20115;-57
2022/11/10 10:15:10;;;;;;;37.35;28.05;;;;;;;13.25;70.58;98367.94;10320139;28;20703;-56
2022/11/10 10:20:24;;;;;;;35.83;27.05;;;;;;;13.47;69.82;98358.31;10334657;28;20060;-56
2022/11/10 10:25:26;;;;;;;36.15;27.25;;;;;;;13.66;69.01;98353.97;10333544;28;20056;-57
2022/11/10 10:30:25;;;;;;;33.58;24.08;;;;;;;13.84;66.89;98353.00;10334050;28;20061;-55
2022/11/10 10:35:24;;;;;;;32.47;23.27;;;;;;;13.98;64.26;98349.47;10318537;28;20041;-55
2022/11/10 10:40:24;;;;;;;29.90;23.05;;;;;;;14.17;63.26;98337.19;10323268;28;20056;-56
2022/11/10 10:45:28;;;;;;;32.20;22.65;;;;;;;14.39;61.83;98342.25;10308603;28;20053;-56
2022/11/10 10:50:33;;;;;;;31.48;24.23;;;;;;;14.49;61.39;98336.06;10332122;28;20083;-56
2022/11/10 10:55:35;;;;;;;33.45;24.52;;;;;;;14.63;60.80;98315.06;10331182;28;20505;-55
2022/11/10 11:00:49;;;;;;;29.73;22.08;;;;;;;14.92;60.21;98325.31;10331503;28;20055;-56
2022/11/10 11:06:05;;;;;;;30.25;22.75;;;;;;;15.10;60.49;98328.63;10329467;28;20064;-56
2022/11/10 11:11:10;;;;;;;30.75;22.88;;;;;;;15.22;60.03;98321.53;10327370;28;20075;-56
2022/11/10 11:16:11;;;;;;;34.22;24.63;;;;;;;15.36;59.16;98317.88;10327424;28;20068;-57
2022/11/10 11:21:33;;;;;;;33.03;24.70;;;;;;;15.41;59.05;98310.84;10328945;28;20065;-57
2022/11/10 11:26:41;;;;;;;33.15;24.95;;;;;;;15.58;58.66;98314.16;10331157;28;20069;-57
2022/11/10 11:31:58;;;;;;;30.35;22.52;;;;;;;15.71;58.49;98314.84;10330627;28;20508;-57
2022/11/10 11:37:03;;;;;;;29.83;22.38;;;;;;;15.87;58.31;98302.47;10326452;28;20480;-57
2022/11/10 11:42:24;;;;;;;29.75;23.75;;;;;;;16.09;57.63;98301.28;10289954;28;20074;-57
2022/11/10 11:47:53;;;;;;;29.52;21.27;;;;;;;16.25;56.83;98298.44;10302622;28;20065;-57
2022/11/10 11:53:10;;;;;;;28.60;20.43;;;;;;;16.46;54.90;98298.09;10331572;28;20092;-57
2022/11/10 11:58:38;;;;;;;23.02;18.25;;;;;;;16.63;52.79;98296.97;10331500;28;20710;-57
2022/11/10 12:03:58;;;;;;;20.10;16.05;;;;;;;16.65;49.33;98308.28;10331869;28;20076;-57
2022/11/10 12:09:11;;;;;;;26.30;18.23;;;;;;;16.68;50.90;98306.50;10331587;28;20071;-58
2022/11/10 12:14:33;;;;;;;21.50;17.85;;;;;;;16.74;50.98;98308.13;10331265;28;20088;-57
2022/11/10 12:19:42;;;;;;;22.33;16.27;;;;;;;16.83;49.56;98294.03;10336311;28;20092;-57
2022/11/10 12:24:56;;;;;;;23.85;16.27;;;;;;;17.01;47.85;98311.22;10339258;28;20065;-57
2022/11/10 12:30:02;;;;;;;21.17;15.70;;;;;;;17.18;47.34;98311.75;10339118;28;20092;-56
2022/11/10 12:35:20;;;;;;;18.58;14.60;;;;;;;17.35;46.81;98303.56;10338859;28;20511;-57
2022/11/10 12:40:23;;;;;;;20.52;13.23;;;;;;;17.41;46.48;98310.47;10338639;28;20073;-56
2022/11/10 12:45:32;;;;;;;17.63;13.55;;;;;;;17.44;45.87;98313.00;10338618;28;20480;-57
2022/11/10 12:50:31;;;;;;;;;;;;;;;17.53;45.68;98310.22;10336812;28;20081;-57
2022/11/10 12:55:40;;;;;;;20.03;15.10;;;;;;;17.61;45.54;98312.66;10332680;28;19975;-56
2022/11/10 13:00:44;;;;;;;20.60;15.37;;;;;;;17.72;45.43;98310.69;10334061;28;20057;-57
2022/11/10 13:05:53;;;;;;;22.75;15.45;;;;;;;17.76;45.06;98321.13;10337517;28;21029;-56
2022/11/10 13:11:03;;;;;;;21.63;14.68;;;;;;;17.68;43.02;98332.66;10337533;28;20507;-56
2022/11/10 13:16:02;;;;;;;18.52;14.93;;;;;;;17.73;44.14;98326.41;10337119;28;20071;-57
2022/11/10 13:21:01;;;;;;;19.52;15.95;;;;;;;17.89;44.93;98334.00;10319550;28;20065;-57
2022/11/10 13:26:11;;;;;;;22.98;16.95;;;;;;;17.81;45.69;98338.56;10313500;28;20409;-56
2022/11/10 13:31:25;;;;;;;18.50;15.05;;;;;;;17.64;45.21;98347.59;10307783;28;20069;-57
2022/11/10 13:36:45;;;;;;;23.58;15.77;;;;;;;17.59;45.65;98338.97;10296038;28;20077;-56
2022/11/10 13:42:17;;;;;;;23.10;16.50;;;;;;;17.56;46.30;98352.97;10297345;28;20069;-56
2022/11/10 13:47:16;;;;;;;21.20;15.40;;;;;;;17.41;46.38;98361.16;10308554;28;20084;-56
2022/11/10 13:52:38;;;;;;;19.65;15.13;;;;;;;17.25;46.28;98365.81;10336268;28;20042;-57
2022/11/10 13:57:39;;;;;;;25.17;18.65;;;;;;;17.23;46.83;98366.75;10316504;28;20075;-57
2022/11/10 14:02:38;;;;;;;26.23;16.58;;;;;;;17.12;46.67;98370.44;10334647;28;20048;-56
2022/11/10 14:07:43;;;;;;;20.15;14.35;;;;;;;17.00;46.80;98364.53;10335563;28;20088;-57
2022/11/10 14:12:52;;;;;;;21.10;17.02;;;;;;;16.97;47.22;98375.06;10334797;28;20072;-56
2022/11/10 14:17:54;;;;;;;23.73;17.45;;;;;;;16.75;47.81;98385.88;10335552;28;20076;-56
2022/11/10 14:22:55;;;;;;;20.77;15.57;;;;;;;16.79;48.08;98382.28;10333005;28;20065;-57
2022/11/10 14:27:54;;;;;;;26.02;18.05;;;;;;;16.67;48.70;98385.13;10334980;28;20061;-56
2022/11/10 14:33:13;;;;;;;23.63;16.70;;;;;;;16.52;49.46;98389.72;10334855;28;20437;-55
2022/11/10 14:38:18;;;;;;;27.40;18.65;;;;;;;16.23;50.75;98398.00;10334474;28;20068;-55
2022/11/10 14:43:32;;;;;;;27.20;19.88;;;;;;;16.09;51.38;98410.38;10333654;28;20069;-55
2022/11/10 14:48:36;;;;;;;27.25;20.90;;;;;;;15.82;52.63;98406.34;10333662;28;20091;-55
2022/11/10 14:53:40;;;;;;;31.52;22.98;;;;;;;15.64;53.44;98417.84;10333951;28;20069;-56
2022/11/10 14:58:42;;;;;;;30.85;23.13;;;;;;;15.53;53.69;98425.81;10333527;28;20064;-56
2022/11/10 15:03:42;;;;;;;52.85;25.45;;;;;;;15.42;54.40;98438.13;10332758;28;20068;-57
2022/11/10 15:08:41;;;;;;;158.18;139.45;;;;;;;15.02;55.19;98407.13;10332864;28;20080;-58
2022/11/10 15:13:40;;;;;;;94.05;75.47;;;;;;;14.95;56.76;98455.09;10332779;28;20076;-57
2022/11/10 15:18:39;;;;;;;;;;;;;;;14.61;57.92;98465.72;10333655;28;20033;-57
2022/11/10 15:23:39;;;;;;;79.93;71.13;;;;;;;14.36;59.29;98471.09;10332052;28;19936;-57
2022/11/10 15:28:41;;;;;;;66.78;59.22;;;;;;;14.07;60.53;98481.63;10332381;28;20065;-57
2022/11/10 15:33:46;;;;;;;53.00;46.17;;;;;;;13.82;63.00;98486.06;10331443;28;20513;-56
2022/11/10 15:39:22;;;;;;;40.03;28.13;;;;;;;13.53;65.19;98492.16;10330883;28;20064;-56
2022/11/10 15:44:26;;;;;;;115.03;97.60;;;;;;;13.30;66.52;98504.31;10332736;28;20598;-56
2022/11/10 15:49:28;;;;;;;106.97;85.25;;;;;;;13.15;67.06;98507.81;10330998;28;20084;-57
2022/11/10 15:54:30;;;;;;;91.38;70.28;;;;;;;13.02;67.07;98514.72;10335829;28;20069;-57
2022/11/10 15:59:29;;;;;;;69.68;55.42;;;;;;;12.87;67.91;98530.34;10338814;28;20069;-57
2022/11/10 16:04:28;;;;;;;82.43;63.75;;;;;;;12.64;69.39;98528.53;10340246;28;20037;-56
2022/11/10 16:09:27;;;;;;;183.18;129.45;;;;;;;12.47;70.25;98538.03;10339661;28;20650;-57
2022/11/10 16:14:26;;;;;;;73.88;55.42;;;;;;;12.33;71.21;98543.19;10339457;28;20034;-56
2022/11/10 16:19:25;;;;;;;55.95;44.08;;;;;;;12.21;71.51;98548.28;10339418;28;20044;-57
2022/11/10 16:24:24;;;;;;;93.60;80.93;;;;;;;12.05;72.28;98555.16;10337560;28;20408;-57
2022/11/10 16:29:23;;;;;;;68.25;50.67;;;;;;;11.98;72.86;98566.38;10338697;28;20037;-56
2022/11/10 16:34:22;;;;;;;60.15;42.85;;;;;;;11.89;72.63;98570.63;10338825;28;20073;-57
2022/11/10 16:39:21;;;;;;;58.10;40.45;;;;;;;11.80;73.31;98575.78;10337104;28;20463;-58
2022/11/10 16:44:21;;;;;;;;;;;;;;;11.66;73.63;98586.06;10339488;28;20084;-57
2022/11/10 16:49:40;;;;;;;81.05;52.90;;;;;;;11.53;74.34;98593.78;10338021;28;19955;-57
2022/11/10 16:54:39;;;;;;;83.70;58.30;;;;;;;11.38;75.08;98597.94;10337961;28;20103;-57
2022/11/10 16:59:38;;;;;;;70.93;51.45;;;;;;;11.25;75.43;98603.91;10332884;28;20268;-58
2022/11/10 17:04:37;;;;;;;76.72;52.97;;;;;;;11.12;75.59;98608.09;10336088;28;20099;-58
2022/11/10 17:09:36;;;;;;;70.18;48.72;;;;;;;10.99;76.56;98622.69;10321640;28;20022;-57
2022/11/10 17:14:35;;;;;;;60.78;41.90;;;;;;;10.87;76.83;98613.84;10295162;28;20448;-58
2022/11/10 17:19:34;;;;;;;65.35;43.53;;;;;;;10.75;77.02;98630.13;10282832;28;20050;-57
2022/11/10 17:24:34;;;;;;;69.60;45.95;;;;;;;10.64;78.18;98621.38;10301211;28;20032;-56
2022/11/10 17:29:33;;;;;;;68.00;46.50;;;;;;;10.53;78.94;98619.50;10299718;28;20468;-57
2022/11/10 17:34:32;;;;;;;77.43;56.67;;;;;;;10.33;79.38;98621.84;10323060;28;20475;-57
2022/11/10 17:39:32;;;;;;;67.97;48.67;;;;;;;10.32;79.86;98629.59;10331859;28;20033;-57
2022/11/10 17:44:31;;;;;;;79.30;52.00;;;;;;;10.19;80.33;98633.72;10329773;28;20065;-57
2022/11/10 17:49:30;;;;;;;85.90;54.15;;;;;;;10.15;79.93;98632.81;10331719;28;20041;-58
2022/11/10 17:54:29;;;;;;;72.38;47.75;;;;;;;10.02;81.21;98636.06;10322205;28;20029;-57
2022/11/10 17:59:28;;;;;;;91.88;60.85;;;;;;;9.91;80.56;98647.97;10323845;28;20057;-57
2022/11/10 18:04:27;;;;;;;95.07;63.33;;;;;;;9.76;81.87;98644.28;10329457;28;20042;-57
2022/11/10 18:09:26;;;;;;;99.25;63.42;;;;;;;9.67;82.06;98646.72;10332094;28;20033;-57
2022/11/10 18:14:25;;;;;;;103.38;66.75;;;;;;;9.58;82.16;98651.75;10320416;28;20141;-61
2022/11/10 18:19:24;;;;;;;98.03;64.90;;;;;;;9.50;82.15;98659.41;10331339;28;20056;-57
2022/11/10 18:24:23;;;;;;;93.15;60.15;;;;;;;9.41;82.16;98655.78;10331554;28;20026;-57
2022/11/10 18:29:22;;;;;;;83.80;57.25;;;;;;;9.28;82.95;98659.84;10330086;28;20048;-57
2022/11/10 18:34:21;;;;;;;94.10;62.47;;;;;;;9.19;83.66;98667.44;10331233;28;20067;-58
2022/11/10 18:39:20;;;;;;;95.72;62.20;;;;;;;9.06;84.22;98658.53;10330660;28;20044;-58
2022/11/10 18:44:19;;;;;;;87.38;56.75;;;;;;;9.00;84.65;98663.63;10328002;28;20064;-58
2022/11/10 18:49:19;;;;;;;81.82;56.25;;;;;;;8.95;84.91;98666.13;10302451;28;20092;-57
2022/11/10 18:54:18;;;;;;;92.45;62.08;;;;;;;8.93;84.91;98667.78;10288103;28;20092;-57
2022/11/10 18:59:17;;;;;;;102.97;67.63;;;;;;;8.83;85.68;98673.59;10317668;28;20064;-57
2022/11/10 19:04:16;;;;;;;105.85;70.40;;;;;;;8.76;85.87;98675.19;10324099;28;20415;-58
2022/11/10 19:09:15;;;;;;;120.93;84.60;;;;;;;8.66;86.37;98674.13;10324466;28;20033;-57
2022/11/10 19:14:14;;;;;;;132.60;88.78;;;;;;;8.58;86.47;98675.69;10326620;28;20072;-57
2022/11/10 19:19:13;;;;;;;149.57;104.78;;;;;;;8.52;86.56;98679.00;10324577;28;20029;-57
2022/11/10 19:24:12;;;;;;;145.20;96.20;;;;;;;8.47;86.63;98683.19;10326846;28;20061;-57
2022/11/10 19:29:11;;;;;;;150.57;99.78;;;;;;;8.37;87.08;98685.56;10326126;28;20021;-57
2022/11/10 19:34:11;;;;;;;147.80;104.45;;;;;;;8.32;87.41;98687.16;10326522;28;20328;-58
2022/11/10 19:39:10;;;;;;;147.35;101.25;;;;;;;8.25;87.54;98691.34;10326940;28;20069;-57
2022/11/10 19:44:09;;;;;;;163.23;114.88;;;;;;;8.21;87.32;98692.09;10326742;28;20057;-57
2022/11/10 19:49:08;;;;;;;170.05;114.13;;;;;;;8.12;87.67;98704.81;10283003;28;1272562;-57
2022/11/10 19:54:08;;;;;;;163.18;106.57;;;;;;;8.03;88.53;98716.66;10325524;28;20045;-55
2022/11/10 19:59:07;;;;;;;153.00;95.45;;;;;;;7.94;88.73;98716.41;10326819;28;20076;-56
2022/11/10 20:04:07;;;;;;;122.93;76.93;;;;;;;7.84;89.61;98732.53;10325051;28;20030;-56
2022/11/10 20:09:06;;;;;;;109.57;67.35;;;;;;;7.76;89.83;98729.78;10327750;28;20065;-56
2022/11/10 20:14:05;;;;;;;111.53;70.60;;;;;;;7.73;90.40;98737.41;10327774;28;20025;-56
2022/11/10 20:19:04;;;;;;;;;;;;;;;7.71;90.37;98733.06;10329605;28;20065;-56
2022/11/10 20:24:03;;;;;;;100.28;65.88;;;;;;;7.68;90.03;98739.00;10324495;28;19919;-55
2022/11/10 20:29:02;;;;;;;105.63;66.95;;;;;;;7.64;89.86;98732.91;10328191;28;20473;-56
2022/11/10 20:34:02;;;;;;;117.88;73.55;;;;;;;7.60;89.80;98749.16;10328132;28;20029;-56
2022/11/10 20:39:02;;;;;;;138.38;88.47;;;;;;;7.54;90.46;98746.41;10329225;28;20052;-56
2022/11/10 20:44:01;;;;;;;159.40;105.63;;;;;;;7.45;90.08;98751.31;10334426;28;20057;-57
2022/11/10 20:49:00;;;;;;;169.75;111.32;;;;;;;7.37;90.86;98752.78;10334728;28;20087;-57
2022/11/10 20:54:00;;;;;;;134.48;85.82;;;;;;;7.24;91.36;98757.63;10334666;28;20064;-57
2022/11/10 20:58:59;;;;;;;120.25;76.72;;;;;;;7.14;92.23;98750.41;10334989;28;20076;-57
2022/11/10 21:03:58;;;;;;;122.63;79.30;;;;;;;7.13;92.27;98747.81;10335085;28;20061;-57
2022/11/10 21:08:57;;;;;;;147.43;92.88;;;;;;;7.06;91.37;98748.47;10335169;28;20519;-56
2022/11/10 21:13:56;;;;;;;140.68;88.72;;;;;;;6.99;91.47;98756.03;10335379;28;20485;-59
2022/11/10 21:18:55;;;;;;;112.45;71.03;;;;;;;6.95;92.06;98764.50;10335400;28;20043;-57
2022/11/10 21:23:56;;;;;;;94.20;55.78;;;;;;;6.83;92.18;98770.16;10334907;28;20496;-57
2022/11/10 21:28:56;;;;;;;102.47;58.53;;;;;;;6.78;93.26;98776.91;10334705;28;20457;-57
2022/11/10 21:33:58;;;;;;;87.45;55.13;;;;;;;6.77;93.53;98780.31;10334724;28;20057;-57
2022/11/10 21:38:58;;;;;;;105.00;60.83;;;;;;;6.78;92.96;98786.34;10334293;28;20176;-57
2022/11/10 21:43:57;;;;;;;110.47;64.70;;;;;;;6.76;92.72;98785.44;10334218;28;20068;-57
2022/11/10 21:48:56;;;;;;;100.95;59.90;;;;;;;6.81;93.30;98795.03;10329854;28;20397;-57
2022/11/10 21:53:55;;;;;;;108.07;63.75;;;;;;;6.83;93.54;98785.66;10331355;28;20045;-57
2022/11/10 21:58:54;;;;;;;105.30;65.63;;;;;;;6.85;93.46;98802.91;10331457;28;20489;-57
2022/11/10 22:03:53;;;;;;;116.07;67.70;;;;;;;6.85;93.78;98802.91;10331635;28;20136;-57
2022/11/10 22:08:52;;;;;;;125.72;73.53;;;;;;;6.85;93.35;98803.75;10332284;28;20025;-57
2022/11/10 22:19:08;;;;;;;117.60;70.55;;;;;;;6.66;94.70;98811.78;10330761;28;20065;-57
2022/11/10 22:24:22;;;;;;;110.00;63.30;;;;;;;6.60;94.77;98810.72;10332656;28;20022;-57
2022/11/10 22:29:24;;;;;;;135.63;78.03;;;;;;;6.55;94.85;98809.72;10332310;28;20068;-57
2022/11/10 22:34:23;;;;;;;126.38;75.60;;;;;;;6.57;94.70;98807.19;10332477;28;20142;-57
2022/11/10 22:44:02;;;;;;;134.10;75.43;;;;;;;6.57;94.50;98808.06;10332039;28;20065;-57
2022/11/10 22:44:41;;;;;;;120.47;70.60;;;;;;;6.55;94.54;98811.41;10332091;28;20053;-57
2022/11/10 22:49:40;;;;;;;114.45;66.38;;;;;;;6.49;94.10;98812.13;10331490;28;20045;-57
2022/11/10 22:54:39;;;;;;;116.22;65.70;;;;;;;6.47;93.72;98818.91;10331725;28;20030;-57
2022/11/10 22:59:38;;;;;;;103.80;60.70;;;;;;;6.45;94.19;98814.53;10331544;28;20029;-57
2022/11/10 23:04:37;;;;;;;110.28;61.38;;;;;;;6.43;94.24;98817.06;10330956;28;20053;-57
2022/11/10 23:09:36;;;;;;;111.65;67.00;;;;;;;6.37;93.77;98820.31;10331212;28;20112;-57
2022/11/10 23:14:35;;;;;;;107.93;62.85;;;;;;;6.31;94.28;98830.44;10329782;28;20120;-57
2022/11/10 23:19:34;;;;;;;106.55;58.30;;;;;;;6.13;94.72;98845.28;10329792;28;20048;-55
2022/11/10 23:24:33;;;;;;;104.72;56.70;;;;;;;5.90;94.81;98850.50;10330847;28;20112;-55
2022/11/10 23:29:32;;;;;;;93.78;54.35;;;;;;;5.81;94.79;98842.44;10330777;28;20029;-55